This is the latest recevied weather packets stored in our database for station/object VE7OTD. If no packets are shown the sender has not sent any weather packets the latest 10 day(s).
| Time | Temp. | Humidity | Pressure | Rain* | Wind** | Luminosity | Snow |
|---|---|---|---|---|---|---|---|
| 1778229782 | 12.78° C | 86% | 1013.9 hPa | 0 mm | - | - | - |
| 1778227967 | 12.22° C | 89% | 1013.9 hPa | 0 mm | - | - | - |
| 1778226134 | 12.22° C | 91% | 1014 hPa | 0 mm | - | - | - |
| 1778224319 | 12.22° C | 91% | 1014.1 hPa | 0 mm | - | - | - |
| 1778222504 | 11.67° C | 93% | 1014.4 hPa | 0 mm | - | - | - |
| 1778220694 | 11.67° C | 94% | 1014.5 hPa | 0 mm | - | - | - |
| 1778218893 | 11.67° C | 90% | 1014.5 hPa | 0 mm | - | - | - |
| 1778217078 | 12.78° C | 86% | 1014.5 hPa | 0 mm | - | - | - |
| 1778215262 | 13.33° C | 83% | 1014.7 hPa | 0 mm | - | - | - |
| 1778213446 | 14.44° C | 76% | 1014.4 hPa | 0 mm | - | - | - |
| 1778211631 | 15.56° C | 67% | 1014.5 hPa | 0 mm | - | - | - |
| 1778209816 | 15.56° C | 67% | 1014.5 hPa | 0 mm | - | - | - |
| 1778208000 | 15.56° C | 65% | 1014.7 hPa | 0 mm | - | - | - |
| 1778206186 | 16.67° C | 57% | 1015 hPa | 0 mm | - | - | - |
| 1778204371 | 17.22° C | 56% | 1015.2 hPa | 0 mm | - | - | - |
| 1778202571 | 18.33° C | 53% | 1015.4 hPa | 0 mm | - | - | - |
| 1778200740 | 18.33° C | 52% | 1015.7 hPa | 0 mm | - | - | - |
| 1778198926 | 19.44° C | 50% | 1015.9 hPa | 0 mm | - | - | - |
| 1778197092 | 19.44° C | 45% | 1015.9 hPa | 0 mm | - | - | - |
| 1778195282 | 19.44° C | 47% | 1016.5 hPa | 0 mm | - | - | - |
| 1778193461 | 20° C | 49% | 1016.7 hPa | 0 mm | - | - | - |
| 1778191652 | 20.56° C | 48% | 1017.3 hPa | 0 mm | - | - | - |
| 1778189850 | 20° C | 47% | 1017.4 hPa | 0 mm | - | - | - |
| 1778188035 | 20° C | 50% | 1017.9 hPa | 0 mm | - | - | - |
| 1778186201 | 18.89° C | 53% | 1018.2 hPa | 0 mm | - | - | - |
* Rain latest hour (hover to see other rain measurements)
** Current wind speed in m/s (hover to see current wind gust speed)